This is the latest recevied weather packets stored in our database for station/object KC7KGF. If no packets are shown the sender has not sent any weather packets the latest 10 day(s).
| Time | Temp. | Humidity | Pressure | Rain* | Wind** | Luminosity | Snow |
|---|---|---|---|---|---|---|---|
| 1777572333 | 21.67° C | 16% | 1016.3 hPa | 0 mm | - | - | - |
| 1777570532 | 21.11° C | 16% | 1016.3 hPa | 0 mm | - | - | - |
| 1777568740 | 20.56° C | 17% | 1016.7 hPa | 0 mm | - | - | - |
| 1777566940 | 19.44° C | 18% | 1016.7 hPa | 0 mm | - | - | - |
| 1777565129 | 19.44° C | 18% | 1017 hPa | 0 mm | - | - | - |
| 1777563333 | 18.33° C | 22% | 1017 hPa | 0 mm | - | - | - |
| 1777561542 | 15.56° C | 26% | 1017.2 hPa | 0 mm | - | - | - |
| 1777559741 | 12.78° C | 32% | 1017.4 hPa | 0 mm | - | - | - |
| 1777557929 | 6.67° C | 49% | 1017.3 hPa | 0 mm | - | - | - |
| 1777556128 | 2.22° C | 58% | 1017.3 hPa | 0 mm | - | - | - |
| 1777554336 | 0° C | 60% | 1017.1 hPa | 0 mm | - | - | - |
| 1777552536 | 0.56° C | 57% | 1016.9 hPa | 0 mm | - | - | - |
| 1777550740 | 1.11° C | 56% | 1017.1 hPa | 0 mm | - | - | - |
| 1777548936 | 1.67° C | 55% | 1017.5 hPa | 0 mm | - | - | - |
| 1777547145 | 2.78° C | 52% | 1017.6 hPa | 0 mm | - | - | - |
| 1777545345 | 3.33° C | 49% | 1017.7 hPa | 0 mm | - | - | - |
| 1777543550 | 5° C | 46% | 1017.6 hPa | 0 mm | - | - | - |
| 1777541727 | 6.11° C | 43% | 1018 hPa | 0 mm | - | - | - |
| 1777539944 | 6.67° C | 45% | 1018.1 hPa | 0 mm | - | - | - |
| 1777538148 | 6.67° C | 44% | 1018.4 hPa | 0 mm | - | - | - |
| 1777536338 | 7.78° C | 42% | 1018.6 hPa | 0 mm | - | - | - |
| 1777534541 | 7.78° C | 40% | 1019.1 hPa | 0 mm | - | - | - |
| 1777532727 | 8.33° C | 38% | 1019.3 hPa | 0 mm | - | - | - |
| 1777530940 | 8.89° C | 36% | 1019.4 hPa | 0 mm | - | - | - |
| 1777529126 | 10° C | 33% | 1019.4 hPa | 0 mm | - | - | - |
* Rain latest hour (hover to see other rain measurements)
** Current wind speed in m/s (hover to see current wind gust speed)